createdAt,value
2023-04-05T00:01:35.772Z,20.37
2023-04-05T00:04:09.306Z,20.33
2023-04-05T00:06:42.832Z,20.43
2023-04-05T00:09:13.375Z,20.35
2023-04-05T00:11:43.944Z,20.35
2023-04-05T00:14:14.530Z,20.39
2023-04-05T00:16:47.452Z,20.34
2023-04-05T00:19:18.181Z,20.40
2023-04-05T00:21:51.290Z,20.39
2023-04-05T00:24:26.963Z,20.33
2023-04-05T00:27:00.863Z,20.37
2023-04-05T00:29:31.703Z,20.35
2023-04-05T00:32:02.374Z,20.33
2023-04-05T00:34:34.173Z,20.42
2023-04-05T00:37:04.609Z,20.36
2023-04-05T00:39:35.065Z,20.39
2023-04-05T00:42:06.324Z,20.47
2023-04-05T00:44:37.319Z,20.39
2023-04-05T00:47:11.992Z,20.41
2023-04-05T00:49:43.990Z,20.39
2023-04-05T00:52:16.962Z,20.32
2023-04-05T00:54:52.469Z,20.41
2023-04-05T00:57:23.494Z,20.36
2023-04-05T00:59:56.074Z,20.34
2023-04-05T01:02:36.622Z,20.48
2023-04-05T01:05:40.626Z,20.42
2023-04-05T01:08:24.383Z,20.45
2023-04-05T01:10:59.356Z,20.45
2023-04-05T01:13:32.448Z,20.38
2023-04-05T01:16:03.056Z,20.44
2023-04-05T01:18:34.498Z,20.40
2023-04-05T01:21:31.198Z,20.37
2023-04-05T01:24:28.897Z,20.44
2023-04-05T01:27:03.924Z,20.36
2023-04-05T01:29:51.815Z,20.45
2023-04-05T01:32:49.381Z,20.39
2023-04-05T01:35:26.314Z,20.37
2023-04-05T01:38:04.894Z,20.44
2023-04-05T01:40:39.058Z,20.36
2023-04-05T01:43:22.474Z,20.40
2023-04-05T01:45:56.956Z,20.43
2023-04-05T01:48:28.226Z,20.37
2023-04-05T01:51:03.201Z,20.45
2023-04-05T01:53:43.549Z,20.50
2023-04-05T01:56:20.886Z,20.49
2023-04-05T01:58:52.472Z,20.56
2023-04-05T02:01:23.832Z,20.54
2023-04-05T02:03:57.709Z,20.53
2023-04-05T02:06:31.999Z,20.56
2023-04-05T02:09:04.859Z,20.53
2023-04-05T02:11:38.037Z,20.56
2023-04-05T02:14:08.906Z,20.55
2023-04-05T02:16:44.750Z,20.54
2023-04-05T02:19:17.419Z,20.57
2023-04-05T02:21:47.893Z,20.56
2023-04-05T02:24:18.549Z,20.55
2023-04-05T02:26:50.223Z,20.62
2023-04-05T02:29:20.622Z,20.58
2023-04-05T02:31:55.302Z,20.58
2023-04-05T02:34:25.862Z,20.65
2023-04-05T02:36:56.509Z,20.67
2023-04-05T02:39:28.639Z,20.69
2023-04-05T02:42:01.482Z,20.71
2023-04-05T02:44:35.304Z,20.69
2023-04-05T02:47:07.583Z,20.75
2023-04-05T02:49:40.395Z,20.74
2023-04-05T02:52:12.557Z,20.73
2023-04-05T02:54:48.599Z,20.75
2023-04-05T02:57:25.759Z,20.75
2023-04-05T03:00:03.765Z,20.77
2023-04-05T03:02:36.533Z,20.78
2023-04-05T03:05:09.725Z,20.77
2023-04-05T03:07:44.680Z,20.80
2023-04-05T03:10:20.562Z,20.79
2023-04-05T03:12:56.008Z,20.79
2023-04-05T03:15:30.150Z,20.80
2023-04-05T03:18:02.801Z,20.81
2023-04-05T03:20:36.126Z,20.80
2023-04-05T03:23:10.991Z,20.81
2023-04-05T03:25:43.164Z,20.80
2023-04-05T03:28:14.979Z,20.82
2023-04-05T03:30:49.125Z,20.83
2023-04-05T03:33:23.105Z,20.82
2023-04-05T03:35:55.015Z,20.84
2023-04-05T03:38:25.902Z,20.83
2023-04-05T03:41:12.178Z,20.83
2023-04-05T03:43:43.060Z,20.86
2023-04-05T03:46:13.574Z,20.85
2023-04-05T03:48:44.296Z,20.85
2023-04-05T03:51:14.855Z,20.87
2023-04-05T03:53:45.257Z,20.87
2023-04-05T03:56:16.736Z,20.86
2023-04-05T03:58:51.942Z,20.89
2023-04-05T04:01:30.775Z,20.88
2023-04-05T04:04:02.211Z,20.89
2023-04-05T04:06:33.086Z,20.90
2023-04-05T04:09:03.985Z,20.88
2023-04-05T04:11:35.259Z,20.91
2023-04-05T04:14:08.411Z,20.91
2023-04-05T04:17:11.294Z,20.91
2023-04-05T04:20:13.241Z,20.94
2023-04-05T04:23:11.553Z,20.93
2023-04-05T04:25:57.451Z,20.95
2023-04-05T04:28:57.332Z,20.94
2023-04-05T04:31:52.076Z,20.95
2023-04-05T04:34:46.144Z,20.94
2023-04-05T04:37:34.926Z,20.95
2023-04-05T04:40:42.307Z,20.98
2023-04-05T04:43:38.837Z,20.97
2023-04-05T04:46:28.711Z,21.08
2023-04-05T04:49:15.722Z,21.07
2023-04-05T04:51:51.169Z,21.10
2023-04-05T04:54:25.649Z,21.13
2023-04-05T04:56:56.235Z,21.14
2023-04-05T04:59:27.637Z,21.19
2023-04-05T05:01:58.819Z,21.18
2023-04-05T05:04:29.570Z,21.20
2023-04-05T05:07:00.043Z,21.23
2023-04-05T05:09:30.772Z,21.27
2023-04-05T05:12:03.267Z,21.26
2023-04-05T05:14:33.688Z,21.30
2023-04-05T05:17:04.337Z,21.27
2023-04-05T05:19:34.843Z,21.26
2023-04-05T05:22:05.460Z,21.32
2023-04-05T05:24:36.039Z,21.31
2023-04-05T05:27:06.988Z,21.33
2023-04-05T05:29:37.574Z,21.35
2023-04-05T05:32:09.033Z,21.34
2023-04-05T05:34:40.417Z,21.42
2023-04-05T05:37:11.290Z,21.40
2023-04-05T05:39:41.862Z,21.36
2023-04-05T05:42:13.636Z,21.41
2023-04-05T05:44:44.024Z,21.43
2023-04-05T05:47:14.889Z,21.45
2023-04-05T05:49:45.537Z,21.46
2023-04-05T05:52:16.338Z,21.49
2023-04-05T05:54:47.111Z,21.47
2023-04-05T05:57:18.209Z,21.50
2023-04-05T05:59:51.708Z,21.50
2023-04-05T06:02:42.887Z,21.48
2023-04-05T06:05:13.848Z,21.45
2023-04-05T06:07:44.464Z,21.38
2023-04-05T06:10:15.158Z,21.31
2023-04-05T06:12:48.713Z,21.24
2023-04-05T06:15:19.360Z,21.21
2023-04-05T06:17:49.995Z,21.19
2023-04-05T06:20:23.213Z,21.15
2023-04-05T06:22:53.863Z,21.12
2023-04-05T06:25:24.322Z,21.10
2023-04-05T06:27:54.739Z,21.05
2023-04-05T06:30:25.205Z,21.04
2023-04-05T06:32:55.981Z,21.01
2023-04-05T06:35:29.416Z,20.99
2023-04-05T06:37:59.953Z,20.97
2023-04-05T06:40:30.608Z,20.91
2023-04-05T06:43:01.164Z,20.94
2023-04-05T06:45:34.633Z,20.89
2023-04-05T06:48:05.630Z,20.86
2023-04-05T06:50:36.156Z,20.86
2023-04-05T06:53:06.589Z,20.82
2023-04-05T06:55:37.112Z,20.82
2023-04-05T06:58:10.710Z,20.81
2023-04-05T07:00:41.489Z,20.78
2023-04-05T07:03:12.402Z,20.76
2023-04-05T07:05:42.736Z,20.74
2023-04-05T07:08:13.587Z,20.71
2023-04-05T07:10:44.064Z,20.70
2023-04-05T07:13:14.509Z,20.68
2023-04-05T07:15:45.623Z,20.67
2023-04-05T07:18:19.107Z,20.66
2023-04-05T07:20:51.091Z,20.65
2023-04-05T07:23:21.847Z,20.63
2023-04-05T07:25:54.098Z,20.60
2023-04-05T07:28:24.796Z,20.58
2023-04-05T07:30:56.102Z,20.58
2023-04-05T07:33:26.551Z,20.53
2023-04-05T07:35:58.441Z,20.48
2023-04-05T07:38:31.254Z,20.53
2023-04-05T07:41:01.892Z,20.48
2023-04-05T07:43:34.902Z,20.48
2023-04-05T07:46:08.450Z,20.48
2023-04-05T07:48:38.840Z,20.47
2023-04-05T07:51:10.566Z,20.45
2023-04-05T07:53:41.115Z,20.43
2023-04-05T07:56:13.507Z,20.43
2023-04-05T07:58:44.552Z,20.42
2023-04-05T08:01:18.342Z,20.40
2023-04-05T08:03:49.241Z,20.40
2023-04-05T08:06:19.881Z,20.38
2023-04-05T08:08:51.168Z,20.37
2023-04-05T08:11:21.722Z,20.36
2023-04-05T08:13:52.525Z,20.35
2023-04-05T08:16:23.148Z,20.33
2023-04-05T08:18:54.721Z,20.33
2023-04-05T08:21:25.526Z,20.30
2023-04-05T08:23:56.140Z,20.29
2023-04-05T08:26:27.377Z,20.28
2023-04-05T08:28:57.769Z,20.26
2023-04-05T08:31:29.280Z,20.24
2023-04-05T08:34:00.142Z,20.23
2023-04-05T08:36:33.390Z,20.16
2023-04-05T08:39:04.160Z,20.18
2023-04-05T08:41:42.867Z,20.18
2023-04-05T08:44:15.086Z,20.16
2023-04-05T08:46:47.302Z,20.14
2023-04-05T08:49:18.218Z,20.12
2023-04-05T08:51:48.741Z,20.11
2023-04-05T08:54:19.788Z,20.11
2023-04-05T08:56:51.449Z,20.10
2023-04-05T08:59:22.980Z,20.10
2023-04-05T09:01:54.273Z,20.10
2023-04-05T09:04:26.168Z,20.08
2023-04-05T09:07:00.415Z,20.07
2023-04-05T09:09:37.932Z,20.04
2023-04-05T09:12:09.758Z,20.02
2023-04-05T09:14:41.075Z,20.03
2023-04-05T09:17:12.894Z,20.01
2023-04-05T09:19:45.151Z,20.02
2023-04-05T09:22:19.884Z,20.01
2023-04-05T09:24:51.410Z,20.00
2023-04-05T09:27:24.507Z,19.98
2023-04-05T09:29:59.721Z,19.96
2023-04-05T09:32:30.822Z,19.94
2023-04-05T09:35:07.305Z,19.94
2023-04-05T09:37:38.666Z,19.93
2023-04-05T09:40:11.839Z,19.91
2023-04-05T09:42:49.291Z,19.91
2023-04-05T09:45:20.642Z,19.90
2023-04-05T09:47:59.310Z,19.88
2023-04-05T09:50:30.698Z,19.89
2023-04-05T09:53:17.408Z,19.87
2023-04-05T09:55:51.091Z,19.87
2023-04-05T09:58:25.361Z,19.85
2023-04-05T10:01:06.551Z,19.84
2023-04-05T10:03:52.723Z,19.84
2023-04-05T10:06:23.588Z,19.84
2023-04-05T10:08:54.798Z,19.82
2023-04-05T10:11:26.566Z,19.81
2023-04-05T10:13:57.682Z,19.80
2023-04-05T10:16:31.204Z,19.80
2023-04-05T10:19:07.743Z,19.79
2023-04-05T10:21:43.832Z,19.78
2023-04-05T10:24:25.714Z,19.77
2023-04-05T10:27:12.323Z,19.77
2023-04-05T10:30:08.002Z,19.74
2023-04-05T10:33:06.027Z,19.73
2023-04-05T10:35:58.855Z,19.73
2023-04-05T10:38:31.531Z,19.72
2023-04-05T10:41:12.768Z,19.70
2023-04-05T10:43:44.217Z,19.70
2023-04-05T10:46:22.498Z,19.69
2023-04-05T10:48:56.093Z,19.68
2023-04-05T10:51:34.049Z,19.68
2023-04-05T10:54:05.497Z,19.67
2023-04-05T10:56:36.253Z,19.64
2023-04-05T10:59:07.481Z,19.64
2023-04-05T11:01:40.248Z,19.62
2023-04-05T11:04:15.701Z,19.62
2023-04-05T11:06:55.133Z,19.61
2023-04-05T11:09:28.358Z,19.59
2023-04-05T11:11:58.886Z,19.60
2023-04-05T11:14:43.421Z,19.59
2023-04-05T11:17:28.298Z,19.58
2023-04-05T11:20:13.462Z,19.57
2023-04-05T11:22:56.698Z,19.56
2023-04-05T11:25:27.652Z,19.54
2023-04-05T11:28:04.320Z,19.54
2023-04-05T11:30:53.480Z,19.53
2023-04-05T11:33:55.425Z,19.53
2023-04-05T11:36:34.085Z,19.51
2023-04-05T11:39:23.028Z,19.51
2023-04-05T11:42:05.808Z,19.49
2023-04-05T11:44:50.687Z,19.48
2023-04-05T11:47:25.071Z,19.47
2023-04-05T11:49:55.554Z,19.47
2023-04-05T11:52:26.266Z,19.46
2023-04-05T11:54:56.788Z,19.46
2023-04-05T11:57:27.541Z,19.43
2023-04-05T11:59:58.180Z,19.38
2023-04-05T12:02:28.541Z,19.40
2023-04-05T12:04:59.951Z,19.40
2023-04-05T12:07:34.003Z,19.39
2023-04-05T12:10:06.160Z,19.39
2023-04-05T12:12:41.324Z,19.37
2023-04-05T12:15:15.905Z,19.32
2023-04-05T12:17:51.901Z,19.31
2023-04-05T12:20:26.706Z,19.31
2023-04-05T12:22:58.736Z,19.31
2023-04-05T12:25:29.372Z,19.30
2023-04-05T12:28:07.531Z,19.28
2023-04-05T12:30:39.530Z,19.28
2023-04-05T12:33:13.731Z,19.25
2023-04-05T12:35:44.337Z,19.25
2023-04-05T12:38:18.991Z,19.26
2023-04-05T12:40:50.270Z,19.25
2023-04-05T12:43:23.961Z,19.24
2023-04-05T12:45:57.980Z,19.21
2023-04-05T12:48:28.473Z,19.22
2023-04-05T12:50:59.080Z,19.20
2023-04-05T12:53:30.229Z,19.20
2023-04-05T12:56:03.331Z,19.18
2023-04-05T12:58:37.806Z,19.18
2023-04-05T13:01:08.709Z,19.18
2023-04-05T13:03:39.258Z,19.16
2023-04-05T13:06:09.908Z,19.14
2023-04-05T13:08:40.329Z,19.14
2023-04-05T13:11:10.722Z,19.15
2023-04-05T13:13:41.174Z,19.15
2023-04-05T13:16:11.715Z,19.12
2023-04-05T13:18:42.297Z,19.12
2023-04-05T13:21:13.101Z,19.09
2023-04-05T13:23:44.394Z,19.08
2023-04-05T13:26:15.840Z,19.08
2023-04-05T13:28:46.254Z,19.08
2023-04-05T13:31:16.916Z,19.05
2023-04-05T13:33:47.423Z,19.06
2023-04-05T13:36:17.913Z,19.06
2023-04-05T13:38:48.325Z,19.04
2023-04-05T13:41:22.729Z,19.04
2023-04-05T13:43:53.472Z,19.02
2023-04-05T13:46:24.614Z,19.02
2023-04-05T13:48:55.095Z,19.00
2023-04-05T13:51:26.345Z,18.99
2023-04-05T13:53:56.849Z,18.99
2023-04-05T13:56:27.381Z,18.97
2023-04-05T13:58:57.881Z,18.95
2023-04-05T14:01:28.402Z,18.95
2023-04-05T14:03:58.916Z,18.93
2023-04-05T14:06:29.661Z,18.94
2023-04-05T14:09:00.547Z,18.93
2023-04-05T14:11:30.976Z,18.91
2023-04-05T14:14:02.677Z,18.91
2023-04-05T14:16:33.403Z,18.90
2023-04-05T14:19:04.553Z,18.89
2023-04-05T14:21:36.485Z,18.87
2023-04-05T14:24:07.218Z,18.88
2023-04-05T14:26:38.126Z,18.86
2023-04-05T14:29:08.569Z,18.86
2023-04-05T14:31:39.444Z,18.86
2023-04-05T14:34:09.890Z,18.85
2023-04-05T14:36:40.464Z,18.84
2023-04-05T14:39:10.895Z,18.82
2023-04-05T14:41:42.394Z,18.83
2023-04-05T14:44:12.773Z,18.82
2023-04-05T14:46:43.572Z,18.83
2023-04-05T14:49:13.755Z,18.80
2023-04-05T14:51:44.212Z,18.79
2023-04-05T14:54:14.708Z,18.79
2023-04-05T14:56:45.111Z,18.78
2023-04-05T14:59:16.405Z,18.77
2023-04-05T15:01:50.729Z,18.76
2023-04-05T15:04:21.425Z,18.74
2023-04-05T15:06:51.843Z,18.74
2023-04-05T15:09:22.415Z,18.73
2023-04-05T15:11:54.414Z,18.73
2023-04-05T15:14:31.714Z,18.70
2023-04-05T15:17:02.844Z,18.71
2023-04-05T15:19:33.232Z,18.71
2023-04-05T15:22:03.693Z,18.70
2023-04-05T15:24:35.042Z,18.70
2023-04-05T15:27:06.112Z,18.68
2023-04-05T15:29:36.764Z,18.67
2023-04-05T15:32:07.158Z,18.67
2023-04-05T15:34:37.564Z,18.64
2023-04-05T15:37:08.603Z,18.65
2023-04-05T15:39:39.275Z,18.63
2023-04-05T15:42:09.702Z,18.63
2023-04-05T15:44:40.014Z,18.61
2023-04-05T15:47:12.314Z,18.60
2023-04-05T15:49:42.675Z,18.62
2023-04-05T15:52:13.930Z,18.61
2023-04-05T15:54:45.891Z,18.58
2023-04-05T15:57:16.389Z,18.58
2023-04-05T15:59:46.813Z,18.59
2023-04-05T16:02:17.224Z,18.58
2023-04-05T16:04:47.712Z,18.58
2023-04-05T16:07:18.428Z,18.56
2023-04-05T16:09:48.901Z,18.56
2023-04-05T16:12:19.290Z,18.55
2023-04-05T16:14:49.677Z,18.55
2023-04-05T16:17:20.467Z,18.55
2023-04-05T16:19:51.168Z,18.52
2023-04-05T16:22:22.614Z,18.53
2023-04-05T16:24:53.052Z,18.52
2023-04-05T16:27:24.710Z,18.50
2023-04-05T16:29:55.456Z,18.50
2023-04-05T16:32:25.880Z,18.49
2023-04-05T16:34:56.431Z,18.49
2023-04-05T16:37:26.862Z,18.48
2023-04-05T16:39:57.460Z,18.46
2023-04-05T16:42:28.288Z,18.45
2023-04-05T16:44:59.436Z,18.43
2023-04-05T16:47:30.114Z,18.42
2023-04-05T16:50:00.955Z,18.41
2023-04-05T16:52:31.442Z,18.42
2023-04-05T16:55:02.721Z,18.41
2023-04-05T16:57:33.233Z,18.42
2023-04-05T17:00:03.634Z,18.41
2023-04-05T17:02:34.585Z,18.39
2023-04-05T17:05:05.621Z,18.39
2023-04-05T17:07:36.456Z,18.39
2023-04-05T17:10:06.877Z,18.39
2023-04-05T17:12:38.834Z,18.39
2023-04-05T17:15:10.507Z,18.39
2023-04-05T17:17:42.519Z,18.37
2023-04-05T17:20:13.698Z,18.37
2023-04-05T17:22:44.529Z,18.36
2023-04-05T17:25:14.882Z,18.34
2023-04-05T17:27:45.284Z,18.34
2023-04-05T17:30:16.478Z,18.34
2023-04-05T17:32:46.922Z,18.34
2023-04-05T17:35:17.579Z,18.33
2023-04-05T17:37:49.105Z,18.32
2023-04-05T17:40:20.110Z,18.30
2023-04-05T17:42:50.526Z,18.30
2023-04-05T17:45:21.363Z,18.30
2023-04-05T17:47:51.901Z,18.29
2023-04-05T17:50:24.764Z,18.27
2023-04-05T17:52:55.588Z,18.27
2023-04-05T17:55:26.348Z,18.27
2023-04-05T17:57:57.052Z,18.26
2023-04-05T18:00:27.660Z,18.26
2023-04-05T18:02:58.192Z,18.25
2023-04-05T18:05:29.615Z,18.25
2023-04-05T18:08:00.116Z,18.24
2023-04-05T18:10:30.426Z,18.24
2023-04-05T18:13:00.860Z,18.24
2023-04-05T18:15:31.915Z,18.22
2023-04-05T18:18:02.692Z,18.19
2023-04-05T18:20:33.624Z,18.19
2023-04-05T18:23:04.133Z,18.20
2023-04-05T18:25:35.608Z,18.19
2023-04-05T18:28:19.286Z,18.19
2023-04-05T18:30:54.261Z,18.17
2023-04-05T18:33:24.755Z,18.17
2023-04-05T18:35:55.394Z,18.17
2023-04-05T18:38:25.756Z,18.17
2023-04-05T18:41:06.191Z,18.15
2023-04-05T18:43:36.818Z,18.15
2023-04-05T18:46:07.091Z,18.14
2023-04-05T18:48:40.342Z,18.14
2023-04-05T18:51:10.729Z,18.14
2023-04-05T18:53:41.113Z,18.12
2023-04-05T18:56:11.829Z,18.13
2023-04-05T18:58:42.623Z,18.12
2023-04-05T19:01:16.273Z,18.10
2023-04-05T19:03:47.876Z,18.11
2023-04-05T19:06:19.357Z,18.09
2023-04-05T19:08:49.975Z,18.10
2023-04-05T19:11:20.956Z,18.10
2023-04-05T19:13:52.229Z,18.09
2023-04-05T19:16:22.700Z,18.08
2023-04-05T19:18:53.167Z,18.07
2023-04-05T19:21:23.705Z,18.05
2023-04-05T19:23:54.191Z,18.05
2023-04-05T19:26:24.649Z,18.06
2023-04-05T19:28:55.142Z,18.05
2023-04-05T19:31:25.538Z,18.03
2023-04-05T19:33:55.946Z,18.03
2023-04-05T19:36:26.595Z,18.03
2023-04-05T19:38:57.020Z,18.03
2023-04-05T19:41:27.631Z,18.02
2023-04-05T19:43:58.152Z,18.02
2023-04-05T19:46:32.447Z,18.01
2023-04-05T19:49:11.473Z,17.99
2023-04-05T19:51:43.764Z,17.98
2023-04-05T19:54:16.215Z,17.98
2023-04-05T19:56:47.013Z,17.98
2023-04-05T19:59:34.854Z,17.99
2023-04-05T20:02:21.340Z,17.97
2023-04-05T20:04:51.791Z,17.98
2023-04-05T20:07:22.583Z,17.97
2023-04-05T20:09:53.430Z,17.97
2023-04-05T20:12:24.142Z,17.95
2023-04-05T20:14:54.660Z,17.96
2023-04-05T20:17:29.556Z,17.95
2023-04-05T20:20:02.468Z,17.94
2023-04-05T20:22:34.767Z,17.92
2023-04-05T20:25:37.468Z,17.93
2023-04-05T20:28:29.866Z,17.93
2023-04-05T20:31:00.783Z,17.91
2023-04-05T20:33:43.798Z,17.90
2023-04-05T20:36:15.929Z,17.91
2023-04-05T20:38:47.768Z,17.90
2023-04-05T20:41:20.545Z,17.89
2023-04-05T20:43:50.981Z,17.89
2023-04-05T20:46:21.363Z,17.89
2023-04-05T20:48:52.612Z,17.89
2023-04-05T20:51:23.032Z,17.88
2023-04-05T20:53:54.068Z,17.86
2023-04-05T20:56:24.489Z,17.86
2023-04-05T20:58:56.234Z,17.85
2023-04-05T21:01:28.643Z,17.84
2023-04-05T21:03:59.394Z,17.84
2023-04-05T21:06:30.379Z,17.82
2023-04-05T21:09:00.810Z,17.82
2023-04-05T21:11:31.547Z,17.80
2023-04-05T21:14:02.231Z,17.81
2023-04-05T21:16:33.013Z,17.81
2023-04-05T21:19:03.380Z,17.80
2023-04-05T21:21:33.818Z,17.78
2023-04-05T21:24:04.828Z,17.78
2023-04-05T21:26:35.418Z,17.79
2023-04-05T21:29:06.230Z,17.80
2023-04-05T21:31:37.919Z,17.79
2023-04-05T21:34:08.459Z,17.76
2023-04-05T21:36:39.399Z,17.76
2023-04-05T21:39:10.016Z,17.77
2023-04-05T21:41:41.586Z,17.75
2023-04-05T21:44:12.114Z,17.76
2023-04-05T21:46:42.619Z,17.76
2023-04-05T21:49:13.007Z,17.74
2023-04-05T21:51:44.075Z,17.74
2023-04-05T21:54:14.526Z,17.74
2023-04-05T21:56:44.872Z,17.73
2023-04-05T21:59:15.294Z,17.72
2023-04-05T22:01:45.758Z,17.72
2023-04-05T22:04:16.282Z,17.72
2023-04-05T22:06:46.724Z,17.71
2023-04-05T22:09:17.339Z,17.71
2023-04-05T22:11:47.757Z,17.70
2023-04-05T22:14:18.503Z,17.68
2023-04-05T22:16:49.484Z,17.68
2023-04-05T22:19:20.106Z,17.68
2023-04-05T22:21:50.670Z,17.66
2023-04-05T22:24:21.158Z,17.66
2023-04-05T22:26:53.414Z,17.67
2023-04-05T22:29:23.912Z,17.66
2023-04-05T22:31:54.499Z,17.66
2023-04-05T22:34:24.992Z,17.65
2023-04-05T22:36:55.459Z,17.65
2023-04-05T22:39:26.358Z,17.64
2023-04-05T22:41:57.701Z,17.65
2023-04-05T22:44:28.198Z,17.68
2023-04-05T22:46:58.954Z,17.82
2023-04-05T22:49:29.482Z,17.98
2023-04-05T22:51:59.981Z,18.13
2023-04-05T22:54:30.435Z,18.21
2023-04-05T22:57:02.009Z,18.23
2023-04-05T22:59:32.501Z,18.25
2023-04-05T23:02:03.664Z,18.28
2023-04-05T23:04:34.381Z,18.33
2023-04-05T23:07:04.804Z,18.32
2023-04-05T23:09:35.714Z,18.36
2023-04-05T23:12:06.591Z,18.39
2023-04-05T23:14:36.929Z,18.45
2023-04-05T23:17:07.463Z,18.52
2023-04-05T23:19:38.623Z,18.55
2023-04-05T23:22:09.012Z,18.56
2023-04-05T23:24:39.951Z,18.58
2023-04-05T23:27:10.542Z,18.59
2023-04-05T23:29:41.043Z,18.57
2023-04-05T23:32:14.334Z,18.56
2023-04-05T23:34:44.753Z,18.60
2023-04-05T23:37:16.485Z,18.64
2023-04-05T23:39:47.116Z,18.69
2023-04-05T23:42:18.024Z,18.73
2023-04-05T23:44:48.489Z,18.77
2023-04-05T23:47:19.031Z,18.82
2023-04-05T23:49:49.587Z,18.79
2023-04-05T23:52:20.012Z,18.76
2023-04-05T23:54:50.408Z,18.75
2023-04-05T23:57:21.578Z,18.85
2023-04-05T23:59:53.798Z,18.83
